Time;durP1;ratioP1;P1;durP2;ratioP2;P2;SDS_P1;SDS_P2;PMS_P1;PMS_P2;Temp;Humidity;BMP_temperature;BMP_pressure;BME280_temperature;BME280_humidity;BME280_pressure;Samples;Min_cycle;Max_cycle;Signal;HPM_P1;HPM_P2
2023/10/04 00:01:06;;;;;;;0.00;0.00;;;11.50;99.90;;;;;;4959735;28;20661;-81
2023/10/04 00:03:32;;;;;;;0.10;0.10;;;11.40;99.90;;;;;;4960895;28;20310;-81
2023/10/04 00:05:57;;;;;;;0.10;0.10;;;11.40;99.90;;;;;;4961625;28;20614;-81
2023/10/04 00:08:25;;;;;;;0.10;0.10;;;11.40;99.90;;;;;;4958515;28;20269;-81
2023/10/04 00:10:51;;;;;;;0.00;0.00;;;11.40;99.90;;;;;;4961727;28;20176;-81
2023/10/04 00:13:16;;;;;;;0.00;0.00;;;11.40;99.90;;;;;;4961171;28;20189;-81
2023/10/04 00:15:42;;;;;;;0.10;0.10;;;11.30;99.90;;;;;;4961041;28;20189;-80
2023/10/04 00:18:09;;;;;;;0.10;0.10;;;11.20;99.90;;;;;;4960826;28;20185;-81
2023/10/04 00:20:35;;;;;;;0.10;0.10;;;11.10;99.90;;;;;;4960301;28;20203;-81
2023/10/04 00:23:05;;;;;;;0.10;0.10;;;11.00;99.90;;;;;;4961385;28;20288;-81
2023/10/04 00:25:33;;;;;;;0.10;0.10;;;10.90;99.90;;;;;;4963053;28;20169;-81
2023/10/04 00:27:59;;;;;;;0.10;0.10;;;10.90;99.90;;;;;;4960544;28;20728;-81
2023/10/04 00:30:30;;;;;;;0.10;0.10;;;10.80;99.90;;;;;;4960660;28;20209;-81
2023/10/04 00:32:57;;;;;;;0.10;0.10;;;10.80;99.90;;;;;;4962382;28;20239;-80
2023/10/04 00:35:25;;;;;;;0.10;0.10;;;10.80;99.90;;;;;;4961622;28;20195;-81
2023/10/04 00:37:55;;;;;;;0.00;0.00;;;10.90;99.90;;;;;;4961031;28;20668;-80
2023/10/04 00:40:22;;;;;;;0.10;0.10;;;10.90;99.90;;;;;;4960198;28;20761;-81
2023/10/04 00:42:49;;;;;;;0.00;0.00;;;11.00;99.90;;;;;;4960208;28;20244;-81
2023/10/04 00:45:17;;;;;;;0.10;0.10;;;11.10;99.90;;;;;;4962500;28;20185;-81
2023/10/04 00:47:50;;;;;;;0.00;0.00;;;11.10;99.90;;;;;;4960315;28;20180;-81
2023/10/04 00:50:26;;;;;;;0.10;0.10;;;11.10;99.90;;;;;;4958153;28;20618;-81
2023/10/04 00:53:14;;;;;;;0.00;0.00;;;11.10;99.90;;;;;;4959750;28;20211;-80
2023/10/04 00:55:42;;;;;;;0.10;0.10;;;11.20;99.90;;;;;;4962328;28;20180;-81
2023/10/04 00:58:10;;;;;;;0.10;0.10;;;11.20;99.90;;;;;;4963482;28;20215;-81
2023/10/04 01:00:38;;;;;;;0.10;0.10;;;11.10;99.90;;;;;;4962723;28;20279;-81
2023/10/04 01:03:05;;;;;;;0.00;0.00;;;11.10;99.90;;;;;;4960815;28;20221;-81
2023/10/04 01:05:32;;;;;;;0.00;0.00;;;11.20;99.90;;;;;;4961124;28;20265;-81
2023/10/04 01:07:59;;;;;;;0.10;0.10;;;11.30;99.90;;;;;;4959394;28;20185;-81
2023/10/04 01:10:30;;;;;;;0.10;0.10;;;11.20;99.90;;;;;;4963602;28;20188;-81
2023/10/04 01:12:56;;;;;;;0.10;0.10;;;11.20;99.90;;;;;;4960569;28;20209;-81
2023/10/04 01:15:31;;;;;;;0.10;0.10;;;11.10;99.90;;;;;;4962390;28;20192;-81
2023/10/04 01:18:01;;;;;;;0.00;0.00;;;11.20;99.90;;;;;;4959342;28;20179;-81
2023/10/04 01:20:28;;;;;;;0.10;0.10;;;11.10;99.90;;;;;;4961876;28;20267;-81
2023/10/04 01:23:06;;;;;;;0.10;0.10;;;11.10;99.90;;;;;;4959956;28;20208;-81
2023/10/04 01:25:36;;;;;;;0.00;0.00;;;11.20;99.90;;;;;;4958663;28;20603;-81
2023/10/04 01:28:07;;;;;;;0.10;0.10;;;11.20;99.90;;;;;;4962943;28;20180;-81
2023/10/04 01:30:33;;;;;;;0.10;0.10;;;11.20;99.90;;;;;;4959223;28;20281;-81
2023/10/04 01:33:03;;;;;;;0.10;0.10;;;11.30;99.90;;;;;;4961899;28;20635;-81
2023/10/04 01:35:30;;;;;;;0.10;0.10;;;11.30;99.90;;;;;;4959439;28;20181;-81
2023/10/04 01:37:55;;;;;;;0.10;0.10;;;11.30;99.90;;;;;;4958960;28;20730;-81
2023/10/04 01:40:31;;;;;;;0.10;0.10;;;11.30;99.90;;;;;;4960833;28;20185;-81
2023/10/04 01:42:57;;;;;;;0.10;0.10;;;11.30;99.90;;;;;;4960416;28;20219;-81
2023/10/04 01:45:23;;;;;;;0.10;0.10;;;11.20;99.90;;;;;;4962484;28;20260;-81
2023/10/04 01:47:51;;;;;;;0.03;0.03;;;11.20;99.90;;;;;;4959712;28;20200;-81
2023/10/04 01:50:17;;;;;;;0.07;0.07;;;11.20;99.90;;;;;;4959747;28;20188;-81
2023/10/04 01:52:46;;;;;;;0.10;0.10;;;10.90;99.90;;;;;;4960884;28;20222;-81
2023/10/04 01:55:12;;;;;;;0.10;0.10;;;10.80;99.90;;;;;;4959956;28;20181;-80
2023/10/04 01:57:40;;;;;;;0.00;0.00;;;10.60;99.90;;;;;;4960706;28;20216;-81
2023/10/04 02:00:09;;;;;;;0.10;0.10;;;10.70;99.90;;;;;;4974618;28;20604;-81
2023/10/04 02:02:39;;;;;;;0.10;0.10;;;10.70;99.90;;;;;;4957776;28;20220;-81
2023/10/04 02:05:06;;;;;;;0.03;0.03;;;10.70;99.90;;;;;;4961928;28;20243;-81
2023/10/04 02:07:33;;;;;;;0.00;0.00;;;10.70;99.90;;;;;;4959266;28;20270;-81
2023/10/04 02:09:58;;;;;;;0.10;0.10;;;10.60;99.90;;;;;;4960598;28;20723;-81
2023/10/04 02:12:24;;;;;;;0.10;0.10;;;10.50;99.90;;;;;;4959363;28;20208;-81
2023/10/04 02:14:50;;;;;;;0.10;0.10;;;10.40;99.90;;;;;;4958810;28;20202;-81
2023/10/04 02:17:17;;;;;;;0.10;0.10;;;10.40;99.90;;;;;;4961189;28;20637;-81
2023/10/04 02:19:43;;;;;;;0.03;0.03;;;10.50;99.90;;;;;;4958688;28;20230;-81
2023/10/04 02:22:10;;;;;;;0.00;0.00;;;10.40;99.90;;;;;;4959294;28;20207;-81
2023/10/04 02:24:38;;;;;;;0.10;0.10;;;10.40;99.90;;;;;;4958166;28;20217;-81
2023/10/04 02:27:07;;;;;;;0.10;0.10;;;10.30;99.90;;;;;;4959376;28;20243;-81
2023/10/04 02:29:33;;;;;;;0.10;0.10;;;10.30;99.90;;;;;;4960774;28;20227;-81
2023/10/04 02:31:59;;;;;;;0.10;0.10;;;10.40;99.90;;;;;;4957423;28;20351;-81
2023/10/04 02:34:24;;;;;;;0.10;0.10;;;10.20;99.90;;;;;;4958290;28;20267;-80
2023/10/04 02:36:51;;;;;;;0.10;0.10;;;10.20;99.90;;;;;;4958903;28;20197;-81
2023/10/04 02:39:17;;;;;;;0.10;0.10;;;10.30;99.90;;;;;;4959414;28;20193;-81
2023/10/04 02:41:47;;;;;;;0.10;0.10;;;10.40;99.90;;;;;;4957771;28;20664;-81
2023/10/04 02:44:17;;;;;;;0.10;0.10;;;10.50;99.90;;;;;;4959180;28;20566;-81
2023/10/04 02:46:45;;;;;;;0.00;0.00;;;10.60;99.90;;;;;;4959337;28;20277;-81
2023/10/04 02:49:11;;;;;;;0.03;0.03;;;10.80;99.90;;;;;;4957801;28;20184;-81
2023/10/04 02:51:36;;;;;;;0.10;0.10;;;10.80;99.90;;;;;;4958077;28;20201;-81
2023/10/04 02:54:04;;;;;;;0.10;0.10;;;10.80;99.90;;;;;;4958404;28;20235;-81
2023/10/04 02:56:32;;;;;;;0.10;0.10;;;10.90;99.90;;;;;;4959984;28;20243;-81
2023/10/04 02:58:58;;;;;;;0.10;0.10;;;10.80;99.90;;;;;;4958496;28;20204;-81
2023/10/04 03:01:26;;;;;;;0.00;0.00;;;10.90;99.90;;;;;;4958815;28;20201;-81
2023/10/04 03:03:52;;;;;;;0.07;0.07;;;10.90;99.90;;;;;;4956964;28;20216;-81
2023/10/04 03:06:23;;;;;;;0.10;0.10;;;10.90;99.90;;;;;;4959697;28;20222;-81
2023/10/04 03:08:51;;;;;;;0.10;0.10;;;10.90;99.90;;;;;;4959412;28;20180;-81
2023/10/04 03:11:16;;;;;;;0.10;0.10;;;11.00;99.90;;;;;;4960215;28;20197;-81
2023/10/04 03:13:42;;;;;;;0.00;0.00;;;11.00;99.90;;;;;;4958320;28;20276;-82
2023/10/04 03:16:09;;;;;;;0.10;0.10;;;11.10;99.90;;;;;;4959268;28;20599;-81
2023/10/04 03:18:37;;;;;;;0.07;0.07;;;11.20;99.90;;;;;;4959786;28;20192;-81
2023/10/04 03:23:40;;;;;;;0.10;0.10;;;11.20;99.90;;;;;;4961402;28;20212;-81
2023/10/04 03:26:06;;;;;;;0.10;0.10;;;11.10;99.90;;;;;;4958484;28;20176;-81
2023/10/04 03:28:37;;;;;;;0.10;0.10;;;11.10;99.90;;;;;;4958737;28;20259;-81
2023/10/04 03:31:12;;;;;;;0.00;0.00;;;11.10;99.90;;;;;;4957160;28;20431;-81
2023/10/04 03:33:38;;;;;;;0.00;0.00;;;11.10;99.90;;;;;;4957623;28;20187;-81
2023/10/04 03:36:07;;;;;;;0.10;0.10;;;11.10;99.90;;;;;;4959899;28;20193;-81
2023/10/04 03:38:34;;;;;;;0.10;0.10;;;11.00;99.90;;;;;;4962597;28;20617;-81
2023/10/04 03:41:06;;;;;;;0.10;0.10;;;11.00;99.90;;;;;;4959310;28;20185;-81
2023/10/04 03:43:32;;;;;;;0.10;0.10;;;10.90;99.90;;;;;;4958647;28;20235;-81
2023/10/04 03:46:07;;;;;;;0.10;0.10;;;10.90;99.90;;;;;;4958973;28;20264;-81
2023/10/04 03:48:37;;;;;;;0.07;0.07;;;10.90;99.90;;;;;;4958293;28;20374;-81
2023/10/04 03:51:03;;;;;;;0.10;0.10;;;10.90;99.90;;;;;;4958108;28;20190;-81
2023/10/04 03:53:29;;;;;;;0.10;0.10;;;10.90;99.90;;;;;;4962251;28;20181;-81
2023/10/04 03:55:59;;;;;;;0.10;0.10;;;10.90;99.90;;;;;;4961581;28;21124;-81
2023/10/04 03:58:25;;;;;;;0.10;0.10;;;10.90;99.90;;;;;;4964107;28;20192;-81
2023/10/04 04:00:50;;;;;;;0.10;0.10;;;11.00;99.90;;;;;;4960242;28;20301;-81
2023/10/04 04:03:16;;;;;;;0.10;0.10;;;10.90;99.90;;;;;;4960045;28;20305;-81
2023/10/04 04:05:42;;;;;;;0.10;0.10;;;10.90;99.90;;;;;;4961238;28;20183;-81
2023/10/04 04:08:13;;;;;;;0.10;0.10;;;10.70;99.90;;;;;;4961134;28;20204;-81
2023/10/04 04:10:43;;;;;;;0.10;0.10;;;10.70;99.90;;;;;;4962846;28;20184;-81
2023/10/04 04:13:09;;;;;;;0.10;0.10;;;10.70;99.90;;;;;;4964169;28;20600;-81
2023/10/04 04:15:35;;;;;;;0.10;0.10;;;10.60;99.90;;;;;;4962231;28;20275;-81
2023/10/04 04:18:16;;;;;;;0.10;0.10;;;10.50;99.90;;;;;;4961930;28;20273;-82
2023/10/04 04:20:42;;;;;;;0.10;0.10;;;10.50;99.90;;;;;;4962162;28;20332;-81
2023/10/04 04:23:15;;;;;;;0.00;0.00;;;10.30;99.90;;;;;;4958033;28;20338;-81
2023/10/04 04:25:41;;;;;;;0.10;0.10;;;10.30;99.90;;;;;;4959503;28;20192;-81
2023/10/04 04:28:07;;;;;;;0.10;0.10;;;10.40;99.90;;;;;;4962325;28;20196;-81
2023/10/04 04:30:35;;;;;;;0.10;0.10;;;10.50;99.90;;;;;;4962406;28;20192;-81
2023/10/04 04:33:04;;;;;;;0.10;0.10;;;10.60;99.90;;;;;;4961755;28;20230;-81
2023/10/04 04:38:16;;;;;;;0.10;0.10;;;10.80;99.90;;;;;;4962890;28;20181;-81
2023/10/04 04:40:48;;;;;;;0.10;0.10;;;10.90;99.90;;;;;;4960727;28;20183;-81
2023/10/04 04:43:26;;;;;;;0.10;0.10;;;11.00;99.90;;;;;;4959347;28;20276;-81
2023/10/04 04:45:56;;;;;;;0.10;0.10;;;11.00;99.90;;;;;;4961521;28;20181;-81
2023/10/04 04:48:26;;;;;;;0.00;0.00;;;10.80;99.90;;;;;;4958035;28;20270;-82
2023/10/04 04:50:57;;;;;;;0.10;0.10;;;10.60;99.90;;;;;;4960083;28;20267;-81
2023/10/04 04:53:24;;;;;;;0.10;0.10;;;10.60;99.90;;;;;;4960547;28;20187;-82
2023/10/04 04:55:50;;;;;;;0.10;0.10;;;10.60;99.90;;;;;;4958408;28;20664;-81
2023/10/04 04:58:23;;;;;;;0.00;0.00;;;10.60;99.90;;;;;;4959258;28;20618;-81
2023/10/04 05:00:56;;;;;;;0.10;0.10;;;10.60;99.90;;;;;;4962190;28;20183;-81
2023/10/04 05:03:24;;;;;;;0.03;0.03;;;10.70;99.90;;;;;;4960127;28;20209;-81
2023/10/04 05:05:50;;;;;;;0.00;0.00;;;10.80;99.90;;;;;;4960336;28;20554;-81
2023/10/04 05:08:18;;;;;;;0.10;0.10;;;10.60;99.90;;;;;;4963057;28;20177;-81
2023/10/04 05:10:45;;;;;;;0.10;0.10;;;10.40;99.90;;;;;;4959565;28;20185;-81
2023/10/04 05:13:18;;;;;;;0.00;0.00;;;10.40;99.90;;;;;;4959193;28;20610;-82
2023/10/04 05:15:45;;;;;;;0.10;0.10;;;10.40;99.90;;;;;;4961645;28;20201;-82
2023/10/04 05:18:15;;;;;;;0.10;0.10;;;10.40;99.90;;;;;;4962758;28;20691;-82
2023/10/04 05:20:42;;;;;;;0.10;0.10;;;10.50;99.90;;;;;;4962089;28;20181;-82
2023/10/04 05:23:09;;;;;;;0.10;0.10;;;10.70;99.90;;;;;;4960333;28;20246;-82
2023/10/04 05:25:36;;;;;;;0.10;0.10;;;10.70;99.90;;;;;;4958899;28;20251;-82
2023/10/04 05:28:09;;;;;;;0.10;0.10;;;10.70;99.90;;;;;;4957812;28;20188;-81
2023/10/04 05:30:38;;;;;;;0.10;0.10;;;10.70;99.90;;;;;;4961923;28;20244;-81
2023/10/04 05:33:06;;;;;;;0.10;0.10;;;10.80;99.90;;;;;;4960553;28;21022;-82
2023/10/04 05:35:33;;;;;;;0.10;0.10;;;10.90;99.90;;;;;;4960254;28;20193;-82
2023/10/04 05:37:59;;;;;;;0.10;0.10;;;11.00;99.90;;;;;;4976582;28;20691;-83
2023/10/04 05:40:27;;;;;;;0.10;0.10;;;11.00;99.90;;;;;;4960928;28;20176;-83
2023/10/04 05:42:53;;;;;;;0.10;0.10;;;11.10;99.90;;;;;;4960758;28;20220;-82
2023/10/04 05:45:23;;;;;;;0.10;0.10;;;11.10;99.90;;;;;;4960321;28;20541;-83
2023/10/04 05:47:52;;;;;;;0.10;0.10;;;11.20;99.90;;;;;;4960869;28;20195;-82
2023/10/04 05:50:22;;;;;;;0.10;0.10;;;11.20;99.90;;;;;;4961000;28;20227;-83
2023/10/04 05:52:52;;;;;;;0.00;0.00;;;11.20;99.90;;;;;;4960635;28;20196;-83
2023/10/04 05:55:19;;;;;;;0.10;0.10;;;11.20;99.90;;;;;;4961457;28;20183;-83
2023/10/04 05:57:45;;;;;;;0.10;0.10;;;11.20;99.90;;;;;;4961362;28;20779;-84
2023/10/04 06:00:27;;;;;;;0.10;0.10;;;11.00;99.90;;;;;;4960797;28;20192;-83
2023/10/04 06:03:01;;;;;;;0.10;0.10;;;10.90;99.90;;;;;;4956928;28;20693;-83
2023/10/04 06:05:28;;;;;;;0.00;0.00;;;10.70;99.90;;;;;;4959820;28;20763;-83
2023/10/04 06:07:55;;;;;;;0.10;0.10;;;10.60;99.90;;;;;;4960950;28;20279;-83
2023/10/04 06:10:22;;;;;;;0.10;0.10;;;10.80;99.90;;;;;;4957322;28;20176;-84
2023/10/04 06:12:48;;;;;;;0.00;0.00;;;10.80;99.90;;;;;;4960187;28;20210;-83
2023/10/04 06:15:17;;;;;;;0.10;0.10;;;10.90;99.90;;;;;;4959301;28;20195;-83
2023/10/04 06:17:45;;;;;;;0.00;0.00;;;10.80;99.90;;;;;;4959401;28;20226;-83
2023/10/04 06:20:33;;;;;;;0.10;0.10;;;10.80;99.90;;;;;;4958518;28;20560;-81
2023/10/04 06:23:00;;;;;;;0.10;0.10;;;11.00;99.90;;;;;;4956979;28;20235;-81
2023/10/04 06:25:29;;;;;;;0.00;0.00;;;11.20;99.90;;;;;;4958600;28;20246;-80
2023/10/04 06:27:56;;;;;;;0.10;0.10;;;11.40;99.90;;;;;;4958108;28;20614;-80
2023/10/04 06:30:27;;;;;;;0.10;0.10;;;11.60;99.90;;;;;;4959644;28;20188;-80
2023/10/04 06:32:59;;;;;;;0.00;0.00;;;11.80;99.90;;;;;;4957754;28;20208;-80
2023/10/04 06:35:26;;;;;;;0.00;0.00;;;11.80;99.90;;;;;;4975155;28;20195;-80
2023/10/04 06:37:55;;;;;;;0.10;0.10;;;11.70;99.90;;;;;;4957795;28;20181;-80
2023/10/04 06:40:22;;;;;;;0.10;0.10;;;11.60;99.90;;;;;;4958973;28;20190;-81
2023/10/04 06:42:51;;;;;;;0.10;0.10;;;11.70;99.90;;;;;;4957268;28;21170;-81
2023/10/04 06:45:22;;;;;;;0.00;0.00;;;11.90;99.90;;;;;;4957910;28;20231;-81
2023/10/04 06:47:49;;;;;;;0.10;0.10;;;12.00;99.90;;;;;;4957586;28;20176;-80
2023/10/04 06:50:20;;;;;;;0.10;0.10;;;12.20;99.90;;;;;;4956218;28;20188;-81
2023/10/04 06:52:50;;;;;;;0.10;0.10;;;12.30;99.90;;;;;;4960855;28;20196;-81
2023/10/04 06:55:18;;;;;;;0.10;0.10;;;12.50;99.90;;;;;;4959424;28;20678;-81
2023/10/04 06:57:45;;;;;;;0.10;0.10;;;12.60;99.90;;;;;;4959171;28;20312;-81
2023/10/04 07:00:16;;;;;;;0.10;0.10;;;12.70;99.90;;;;;;4957831;28;20181;-81
2023/10/04 07:02:44;;;;;;;0.10;0.10;;;12.90;99.90;;;;;;4958933;28;20216;-81
2023/10/04 07:05:14;;;;;;;0.10;0.10;;;13.10;99.90;;;;;;4975538;28;20198;-81
2023/10/04 07:07:41;;;;;;;0.10;0.10;;;13.20;99.90;;;;;;4959652;28;20220;-79
2023/10/04 07:10:07;;;;;;;0.10;0.10;;;13.40;99.90;;;;;;4959643;28;20237;-78
2023/10/04 07:12:33;;;;;;;0.10;0.10;;;13.50;99.90;;;;;;4957406;28;20717;-78
2023/10/04 07:14:59;;;;;;;0.10;0.10;;;13.60;99.90;;;;;;4958677;28;20192;-78
2023/10/04 07:17:25;;;;;;;0.00;0.00;;;13.70;99.90;;;;;;4959634;28;20180;-78
2023/10/04 07:19:50;;;;;;;0.10;0.10;;;13.80;99.90;;;;;;4959516;28;20183;-81
2023/10/04 07:22:21;;;;;;;0.10;0.10;;;13.80;99.90;;;;;;4958346;28;20236;-81
2023/10/04 07:24:47;;;;;;;0.10;0.10;;;13.80;99.90;;;;;;4959567;28;20544;-81
2023/10/04 07:27:12;;;;;;;0.10;0.10;;;13.90;99.90;;;;;;4958301;28;20184;-81
2023/10/04 07:29:38;;;;;;;0.10;0.10;;;13.90;99.90;;;;;;4960869;28;20609;-81
2023/10/04 07:32:05;;;;;;;0.10;0.10;;;13.90;99.90;;;;;;4959967;28;20865;-80
2023/10/04 07:34:30;;;;;;;0.10;0.10;;;13.90;99.90;;;;;;4961724;28;20202;-81
2023/10/04 07:36:56;;;;;;;2.80;2.70;;;14.10;99.90;;;;;;4961986;28;20281;-81
2023/10/04 07:39:21;;;;;;;0.10;0.10;;;14.20;99.90;;;;;;4960288;28;20563;-81
2023/10/04 07:41:47;;;;;;;0.00;0.00;;;14.10;99.90;;;;;;4962392;28;20224;-81
2023/10/04 07:44:13;;;;;;;0.10;0.10;;;14.30;99.90;;;;;;4959582;28;20209;-81
2023/10/04 07:46:39;;;;;;;0.10;0.10;;;14.40;99.90;;;;;;4954891;28;20193;-81
2023/10/04 07:49:04;;;;;;;0.00;0.00;;;14.40;99.90;;;;;;4955584;28;20696;-81
2023/10/04 07:51:31;;;;;;;0.10;0.10;;;14.50;99.90;;;;;;4961037;28;20269;-81
2023/10/04 07:53:56;;;;;;;0.10;0.10;;;14.60;99.90;;;;;;4962996;28;20190;-81
2023/10/04 07:56:22;;;;;;;0.10;0.10;;;14.70;99.90;;;;;;4960791;28;20193;-81
2023/10/04 07:58:48;;;;;;;0.03;0.03;;;14.70;99.90;;;;;;4960808;28;20197;-81
2023/10/04 08:01:14;;;;;;;0.10;0.10;;;14.70;99.90;;;;;;4963129;28;20208;-82
2023/10/04 08:03:40;;;;;;;0.10;0.10;;;14.90;99.90;;;;;;4960492;28;20224;-79
2023/10/04 08:06:11;;;;;;;0.10;0.10;;;15.00;99.90;;;;;;4961617;28;20195;-79
2023/10/04 08:08:41;;;;;;;0.10;0.10;;;15.10;99.90;;;;;;4963183;28;20180;-79
2023/10/04 08:11:11;;;;;;;0.10;0.10;;;15.20;99.90;;;;;;4964683;28;20279;-79
2023/10/04 08:13:38;;;;;;;0.10;0.10;;;15.40;99.90;;;;;;4966062;28;20312;-80
2023/10/04 08:16:04;;;;;;;0.10;0.10;;;15.40;99.90;;;;;;4959721;28;20199;-79
2023/10/04 08:18:30;;;;;;;0.10;0.10;;;15.50;99.90;;;;;;4963241;28;20944;-79
2023/10/04 08:20:56;;;;;;;0.10;0.10;;;15.60;99.90;;;;;;4966119;28;20727;-80
2023/10/04 08:23:22;;;;;;;0.10;0.10;;;15.80;99.90;;;;;;4960130;28;20211;-79
2023/10/04 08:25:51;;;;;;;0.10;0.10;;;15.90;99.90;;;;;;4958825;28;20218;-78
2023/10/04 08:28:17;;;;;;;0.10;0.10;;;15.90;99.90;;;;;;4957809;28;21198;-80
2023/10/04 08:30:43;;;;;;;0.10;0.10;;;16.00;99.90;;;;;;4958435;28;20559;-77
2023/10/04 08:33:08;;;;;;;0.10;0.10;;;16.20;99.90;;;;;;4955980;28;20204;-79
2023/10/04 08:35:36;;;;;;;0.10;0.10;;;16.20;99.90;;;;;;4952083;28;20187;-79
2023/10/04 08:38:05;;;;;;;0.10;0.10;;;16.40;99.90;;;;;;4960127;28;20239;-79
2023/10/04 08:40:31;;;;;;;0.10;0.10;;;16.40;99.90;;;;;;4961316;28;20200;-79
2023/10/04 08:42:58;;;;;;;0.10;0.10;;;16.40;99.90;;;;;;4964159;28;20205;-82
2023/10/04 08:45:27;;;;;;;0.10;0.10;;;16.50;99.90;;;;;;4964786;28;20189;-82
2023/10/04 08:47:57;;;;;;;0.10;0.10;;;16.60;99.90;;;;;;4965811;28;20184;-82
2023/10/04 08:50:36;;;;;;;0.10;0.10;;;16.60;99.90;;;;;;4959644;28;20181;-82
2023/10/04 08:53:34;;;;;;;0.10;0.10;;;16.50;99.90;;;;;;4963516;28;20210;-81
2023/10/04 08:56:06;;;;;;;0.10;0.10;;;16.70;99.90;;;;;;4961885;28;20244;-81
2023/10/04 08:58:32;;;;;;;0.10;0.10;;;16.90;99.90;;;;;;4954228;28;20181;-82
2023/10/04 09:00:58;;;;;;;0.10;0.10;;;17.00;99.90;;;;;;4958344;28;20199;-80
2023/10/04 09:03:24;;;;;;;0.10;0.10;;;17.00;99.90;;;;;;4956785;28;20303;-79
2023/10/04 09:05:54;;;;;;;0.10;0.10;;;16.90;99.90;;;;;;4957922;28;20184;-79
2023/10/04 09:08:22;;;;;;;0.10;0.10;;;17.00;99.90;;;;;;4957774;28;20189;-79
2023/10/04 09:10:47;;;;;;;0.10;0.10;;;17.20;99.90;;;;;;4959070;28;20808;-82
2023/10/04 09:13:13;;;;;;;0.10;0.10;;;17.50;99.90;;;;;;4960494;28;20193;-82
2023/10/04 09:15:39;;;;;;;0.10;0.10;;;17.70;99.90;;;;;;4960752;28;20201;-81
2023/10/04 09:18:05;;;;;;;0.10;0.10;;;17.70;99.90;;;;;;4964046;28;20192;-81
2023/10/04 09:20:32;;;;;;;0.10;0.10;;;17.90;99.90;;;;;;4961069;28;20196;-82
2023/10/04 09:23:02;;;;;;;0.10;0.10;;;18.00;99.90;;;;;;4958152;28;20335;-82
2023/10/04 09:25:38;;;;;;;0.10;0.10;;;18.10;99.90;;;;;;4960311;28;20272;-81
2023/10/04 09:28:07;;;;;;;0.10;0.10;;;18.20;99.90;;;;;;4963731;28;20176;-82
2023/10/04 09:30:36;;;;;;;0.10;0.10;;;18.20;99.90;;;;;;4960081;28;20223;-82
2023/10/04 09:33:07;;;;;;;0.10;0.10;;;18.30;99.90;;;;;;4961155;28;20239;-82
2023/10/04 09:35:43;;;;;;;0.10;0.10;;;18.50;99.90;;;;;;4961015;28;20672;-82
2023/10/04 09:38:22;;;;;;;0.10;0.10;;;18.70;99.90;;;;;;4963309;28;20719;-82
2023/10/04 09:40:56;;;;;;;0.10;0.10;;;18.90;99.90;;;;;;4962128;28;20308;-82
2023/10/04 09:43:35;;;;;;;0.10;0.10;;;18.80;99.90;;;;;;4960374;28;20242;-82
2023/10/04 09:46:00;;;;;;;0.10;0.10;;;18.80;99.90;;;;;;4957953;28;20183;-82
2023/10/04 09:48:31;;;;;;;0.10;0.10;;;18.80;99.90;;;;;;4957529;28;20184;-82
2023/10/04 09:51:01;;;;;;;0.10;0.10;;;18.90;99.90;;;;;;4962098;28;20254;-82
2023/10/04 09:53:30;;;;;;;0.10;0.10;;;19.00;99.90;;;;;;4962987;28;20244;-83
2023/10/04 09:56:01;;;;;;;0.10;0.10;;;19.30;99.90;;;;;;4960879;28;20668;-82
2023/10/04 09:58:29;;;;;;;0.10;0.10;;;19.50;99.90;;;;;;4961099;28;20209;-82
2023/10/04 10:00:55;;;;;;;0.10;0.10;;;19.30;99.90;;;;;;4977396;28;20195;-82
2023/10/04 10:03:26;;;;;;;0.10;0.10;;;19.60;99.90;;;;;;4962467;28;20303;-82
2023/10/04 10:05:56;;;;;;;0.10;0.10;;;19.60;99.90;;;;;;4958567;28;20184;-82
2023/10/04 10:08:26;;;;;;;0.10;0.10;;;19.70;99.90;;;;;;4957732;28;21423;-82
2023/10/04 10:10:52;;;;;;;0.10;0.10;;;19.60;99.90;;;;;;4958681;28;20268;-82
2023/10/04 10:13:19;;;;;;;0.10;0.10;;;19.40;99.90;;;;;;4959844;28;20213;-82
2023/10/04 10:15:46;;;;;;;0.10;0.10;;;19.30;99.90;;;;;;4961700;28;20197;-82
2023/10/04 10:18:11;;;;;;;0.10;0.10;;;19.20;99.90;;;;;;4977639;28;20192;-82
2023/10/04 10:20:39;;;;;;;0.10;0.10;;;19.30;99.90;;;;;;4961661;28;20195;-82
2023/10/04 10:23:10;;;;;;;0.10;0.10;;;19.30;99.90;;;;;;4962020;28;20295;-82
2023/10/04 10:25:38;;;;;;;0.10;0.10;;;19.40;99.90;;;;;;4959107;28;20181;-82
2023/10/04 10:28:10;;;;;;;0.10;0.10;;;19.50;99.90;;;;;;4958503;28;20185;-82
2023/10/04 10:30:36;;;;;;;0.10;0.10;;;19.60;99.90;;;;;;4959158;28;20208;-83
2023/10/04 10:33:05;;;;;;;0.10;0.10;;;19.60;99.90;;;;;;4976372;28;20204;-82
2023/10/04 10:35:48;;;;;;;0.10;0.10;;;19.40;99.90;;;;;;4960916;28;20315;-81
2023/10/04 10:38:30;;;;;;;0.10;0.10;;;19.50;99.90;;;;;;4959765;28;20189;-82
2023/10/04 10:40:55;;;;;;;0.10;0.10;;;19.40;99.90;;;;;;4957159;28;20189;-81
2023/10/04 10:43:21;;;;;;;0.10;0.10;;;19.60;99.90;;;;;;4960441;28;20731;-82
2023/10/04 10:45:47;;;;;;;0.10;0.10;;;19.70;99.90;;;;;;4960521;28;20199;-82
2023/10/04 10:48:13;;;;;;;0.10;0.10;;;19.90;99.90;;;;;;4958055;28;20280;-80
2023/10/04 10:50:41;;;;;;;0.10;0.10;;;20.10;99.90;;;;;;4957837;28;20191;-80
2023/10/04 10:53:10;;;;;;;0.10;0.10;;;20.10;99.90;;;;;;4962038;28;20201;-83
2023/10/04 10:55:40;;;;;;;0.10;0.10;;;20.30;99.90;;;;;;4957988;28;20181;-79
2023/10/04 10:58:07;;;;;;;0.10;0.10;;;20.20;99.90;;;;;;4956548;28;20208;-82
2023/10/04 11:00:36;;;;;;;0.10;0.10;;;20.10;99.90;;;;;;4957579;28;20185;-79
2023/10/04 11:03:09;;;;;;;0.10;0.10;;;20.40;99.90;;;;;;4962451;28;20580;-79
2023/10/04 11:05:35;;;;;;;0.10;0.10;;;20.60;99.90;;;;;;4957624;28;20227;-81
2023/10/04 11:08:02;;;;;;;0.10;0.10;;;20.50;99.90;;;;;;4961468;28;20762;-80
2023/10/04 11:10:27;;;;;;;0.10;0.10;;;20.30;99.90;;;;;;4960624;28;20180;-79
2023/10/04 11:12:55;;;;;;;0.10;0.10;;;20.20;99.90;;;;;;4958848;28;20255;-82
2023/10/04 11:15:23;;;;;;;0.10;0.10;;;20.10;99.90;;;;;;4959871;28;20328;-80
2023/10/04 11:17:52;;;;;;;0.10;0.10;;;20.30;99.90;;;;;;4958283;28;20173;-79
2023/10/04 11:20:18;;;;;;;0.17;0.17;;;20.40;99.90;;;;;;4960336;28;20544;-82
2023/10/04 11:22:45;;;;;;;0.10;0.10;;;20.30;99.90;;;;;;4960812;28;20205;-82
2023/10/04 11:25:13;;;;;;;0.10;0.10;;;20.40;99.90;;;;;;4959192;28;20204;-82
2023/10/04 11:27:42;;;;;;;0.10;0.10;;;20.80;99.90;;;;;;4959584;28;20181;-80
2023/10/04 11:30:10;;;;;;;0.10;0.10;;;20.50;99.90;;;;;;4976401;28;20200;-79
2023/10/04 11:32:39;;;;;;;0.10;0.10;;;20.50;99.90;;;;;;4960358;28;20280;-80
2023/10/04 11:35:08;;;;;;;0.10;0.10;;;20.60;99.90;;;;;;4960705;28;20189;-79
2023/10/04 11:37:58;;;;;;;0.10;0.10;;;20.70;99.90;;;;;;4960594;28;20220;-79
2023/10/04 11:40:27;;;;;;;0.10;0.10;;;20.80;99.90;;;;;;4957061;28;20223;-80
2023/10/04 11:43:01;;;;;;;0.10;0.10;;;21.10;99.90;;;;;;4954934;28;20213;-81
2023/10/04 11:45:27;;;;;;;0.10;0.10;;;21.50;99.90;;;;;;4976143;28;21887;-81
2023/10/04 11:48:05;;;;;;;0.10;0.10;;;21.60;99.90;;;;;;4952677;28;20407;-80
2023/10/04 11:50:44;;;;;;;0.10;0.10;;;21.90;99.90;;;;;;4955315;28;22023;-81
2023/10/04 11:53:13;;;;;;;0.10;0.10;;;21.90;99.90;;;;;;4956855;28;20211;-80
2023/10/04 11:55:39;;;;;;;0.10;0.10;;;22.00;99.90;;;;;;4975171;28;20213;-79
2023/10/04 11:58:06;;;;;;;0.10;0.10;;;21.70;99.90;;;;;;4959031;28;20209;-80
2023/10/04 12:00:32;;;;;;;0.10;0.10;;;21.80;99.90;;;;;;4961924;28;20276;-81
2023/10/04 12:02:59;;;;;;;0.10;0.10;;;21.90;99.90;;;;;;4957755;28;20209;-81
2023/10/04 12:05:25;;;;;;;0.10;0.10;;;22.20;99.90;;;;;;4956381;28;20244;-81
2023/10/04 12:07:51;;;;;;;0.10;0.10;;;22.50;99.90;;;;;;4963909;28;20157;-80
2023/10/04 12:10:18;;;;;;;0.10;0.10;;;22.50;99.90;;;;;;4978449;28;20731;-81
2023/10/04 12:12:45;;;;;;;0.10;0.10;;;22.70;99.90;;;;;;4976537;28;20208;-81
2023/10/04 12:15:11;;;;;;;0.10;0.10;;;22.30;99.90;;;;;;4965356;28;20220;-81
2023/10/04 12:17:36;;;;;;;0.10;0.10;;;22.00;99.90;;;;;;4965753;28;20219;-81
2023/10/04 12:20:04;;;;;;;0.10;0.10;;;22.00;99.90;;;;;;4965642;28;20205;-81
2023/10/04 12:22:30;;;;;;;0.10;0.10;;;22.10;99.90;;;;;;4965734;28;20212;-81
2023/10/04 12:24:56;;;;;;;0.10;0.10;;;22.00;99.90;;;;;;4964823;28;20225;-82
2023/10/04 12:27:24;;;;;;;0.10;0.10;;;21.90;99.90;;;;;;4967026;28;20560;-81
2023/10/04 12:29:50;;;;;;;0.10;0.10;;;21.90;99.90;;;;;;4948287;28;20181;-81
2023/10/04 12:32:18;;;;;;;0.10;0.10;;;21.50;99.90;;;;;;4966288;28;20206;-81
2023/10/04 12:34:44;;;;;;;0.10;0.10;;;21.40;99.90;;;;;;4962874;28;20734;-81
2023/10/04 12:37:10;;;;;;;0.10;0.10;;;21.30;99.90;;;;;;4966306;28;20188;-81
2023/10/04 12:39:38;;;;;;;0.10;0.10;;;21.40;99.90;;;;;;4966251;28;20189;-81
2023/10/04 12:42:03;;;;;;;0.10;0.10;;;21.30;99.90;;;;;;4962062;28;20208;-81
2023/10/04 12:44:29;;;;;;;0.10;0.10;;;21.30;99.90;;;;;;4963929;28;20672;-80
2023/10/04 12:46:57;;;;;;;0.10;0.10;;;21.10;99.90;;;;;;4965369;28;20729;-79
2023/10/04 12:49:23;;;;;;;0.10;0.10;;;20.90;99.90;;;;;;4964944;28;20188;-80
2023/10/04 12:51:49;;;;;;;0.10;0.10;;;20.80;99.90;;;;;;4963529;28;20259;-80
2023/10/04 12:54:16;;;;;;;0.10;0.10;;;20.80;99.90;;;;;;4963686;28;20649;-80
2023/10/04 12:56:43;;;;;;;0.10;0.10;;;20.80;99.90;;;;;;4965394;28;20180;-82
2023/10/04 12:59:10;;;;;;;0.10;0.10;;;20.80;99.90;;;;;;4965086;28;20275;-81